createdAt,value
2022-10-17T00:03:43.191Z,12.40
2022-10-17T00:08:49.742Z,12.41
2022-10-17T00:13:56.815Z,12.43
2022-10-17T00:19:01.898Z,12.44
2022-10-17T00:24:07.410Z,12.44
2022-10-17T00:29:10.206Z,12.45
2022-10-17T00:34:16.714Z,12.47
2022-10-17T00:39:20.965Z,12.50
2022-10-17T00:44:30.640Z,12.51
2022-10-17T00:49:36.209Z,12.56
2022-10-17T00:54:44.546Z,12.62
2022-10-17T00:59:53.234Z,12.68
2022-10-17T01:04:56.766Z,12.70
2022-10-17T01:10:03.329Z,12.74
2022-10-17T01:15:36.263Z,12.80
2022-10-17T01:21:10.266Z,12.85
2022-10-17T01:26:49.290Z,12.87
2022-10-17T01:32:18.489Z,12.85
2022-10-17T01:37:33.457Z,12.76
2022-10-17T01:42:43.848Z,12.74
2022-10-17T01:47:53.172Z,12.68
2022-10-17T01:52:59.562Z,12.63
2022-10-17T01:58:20.027Z,12.65
2022-10-17T02:03:26.057Z,12.69
2022-10-17T02:08:30.031Z,12.71
2022-10-17T02:14:01.215Z,12.73
2022-10-17T02:19:33.269Z,12.76
2022-10-17T02:24:38.150Z,12.73
2022-10-17T02:29:57.348Z,12.72
2022-10-17T02:35:06.414Z,12.73
2022-10-17T02:40:10.863Z,12.72
2022-10-17T02:45:18.894Z,12.71
2022-10-17T02:50:24.374Z,12.69
2022-10-17T02:55:36.073Z,12.64
2022-10-17T03:00:43.099Z,12.61
2022-10-17T03:05:52.184Z,12.56
2022-10-17T03:10:57.072Z,12.56
2022-10-17T03:16:00.564Z,12.54
2022-10-17T03:21:05.104Z,12.50
2022-10-17T03:26:10.171Z,12.52
2022-10-17T03:31:17.248Z,12.55
2022-10-17T03:36:24.679Z,12.58
2022-10-17T03:41:28.757Z,12.58
2022-10-17T03:46:30.544Z,12.56
2022-10-17T03:51:36.867Z,12.55
2022-10-17T03:56:44.670Z,12.50
2022-10-17T04:01:49.884Z,12.44
2022-10-17T04:06:52.103Z,12.40
2022-10-17T04:11:54.406Z,12.35
2022-10-17T04:16:58.502Z,12.32
2022-10-17T04:22:00.852Z,12.29
2022-10-17T04:27:08.204Z,12.25
2022-10-17T04:32:13.444Z,12.22
2022-10-17T04:37:24.198Z,12.19
2022-10-17T04:42:29.657Z,12.16
2022-10-17T04:47:32.184Z,12.18
2022-10-17T04:52:39.648Z,12.14
2022-10-17T04:57:44.409Z,12.13
2022-10-17T05:02:54.618Z,12.13
2022-10-17T05:08:01.359Z,12.17
2022-10-17T05:13:09.015Z,12.21
2022-10-17T05:18:13.836Z,12.21
2022-10-17T05:23:19.003Z,12.21
2022-10-17T05:28:24.939Z,12.20
2022-10-17T05:33:28.768Z,12.21
2022-10-17T05:38:34.577Z,12.25
2022-10-17T05:43:39.815Z,12.25
2022-10-17T05:48:47.520Z,12.27
2022-10-17T05:53:49.374Z,12.27
2022-10-17T05:59:01.020Z,12.29
2022-10-17T06:04:18.340Z,12.27
2022-10-17T06:09:20.372Z,12.28
2022-10-17T06:14:26.929Z,12.30
2022-10-17T06:19:36.774Z,12.31
2022-10-17T06:24:40.963Z,12.35
2022-10-17T06:29:48.756Z,12.41
2022-10-17T06:34:53.752Z,12.45
2022-10-17T06:39:59.150Z,12.54
2022-10-17T06:45:00.898Z,12.62
2022-10-17T06:50:16.618Z,12.68
2022-10-17T06:55:27.350Z,12.75
2022-10-17T07:00:44.964Z,12.83
2022-10-17T07:05:53.014Z,12.88
2022-10-17T07:11:00.711Z,12.98
2022-10-17T07:16:08.082Z,13.02
2022-10-17T07:21:13.538Z,13.04
2022-10-17T07:26:16.938Z,13.07
2022-10-17T07:31:20.488Z,13.15
2022-10-17T07:36:24.414Z,13.19
2022-10-17T07:41:28.836Z,13.24
2022-10-17T07:46:30.670Z,13.30
2022-10-17T07:51:35.758Z,13.37
2022-10-17T07:56:41.710Z,13.47
2022-10-17T08:01:44.410Z,13.59
2022-10-17T08:07:05.626Z,13.73
2022-10-17T08:12:34.450Z,13.86
2022-10-17T08:17:37.178Z,14.01
2022-10-17T08:22:41.169Z,14.23
2022-10-17T08:27:47.309Z,14.45
2022-10-17T08:32:51.261Z,14.76
2022-10-17T08:37:53.206Z,14.93
2022-10-17T08:43:26.876Z,15.03
2022-10-17T08:48:35.346Z,15.17
2022-10-17T08:54:03.670Z,15.36
2022-10-17T08:59:12.975Z,15.54
2022-10-17T09:04:20.036Z,15.70
2022-10-17T09:09:31.958Z,15.89
2022-10-17T09:14:49.742Z,16.12
2022-10-17T09:20:02.100Z,16.35
2022-10-17T09:25:07.081Z,16.56
2022-10-17T09:30:46.820Z,16.64
2022-10-17T09:35:51.190Z,16.69
2022-10-17T09:41:01.569Z,16.76
2022-10-17T09:46:28.741Z,16.83
2022-10-17T09:51:33.801Z,16.86
2022-10-17T09:56:58.035Z,16.86
2022-10-17T10:02:20.635Z,16.85
2022-10-17T10:07:29.735Z,16.86
2022-10-17T10:12:34.251Z,16.85
2022-10-17T10:17:44.193Z,16.86
2022-10-17T10:23:13.458Z,16.88
2022-10-17T10:28:17.373Z,16.98
2022-10-17T10:33:21.082Z,17.13
2022-10-17T10:38:26.582Z,17.16
2022-10-17T10:43:39.797Z,17.16
2022-10-17T10:49:00.200Z,17.15
2022-10-17T10:54:05.141Z,17.26
2022-10-17T10:59:19.182Z,17.32
2022-10-17T11:04:39.705Z,17.38
2022-10-17T11:09:58.672Z,17.41
2022-10-17T11:15:20.775Z,17.44
2022-10-17T11:20:58.179Z,17.43
2022-10-17T11:26:07.164Z,17.38
2022-10-17T11:31:15.945Z,17.32
2022-10-17T11:36:24.516Z,17.23
2022-10-17T11:41:48.449Z,17.11
2022-10-17T11:47:09.123Z,16.99
2022-10-17T11:52:55.378Z,16.91
2022-10-17T11:58:09.588Z,16.79
2022-10-17T12:03:41.333Z,16.71
2022-10-17T12:09:01.132Z,16.66
2022-10-17T12:14:05.780Z,16.64
2022-10-17T12:19:21.603Z,16.63
2022-10-17T12:24:54.944Z,16.64
2022-10-17T12:30:16.736Z,16.61
2022-10-17T12:35:24.945Z,16.66
2022-10-17T12:40:38.817Z,16.69
2022-10-17T12:46:00.683Z,16.68
2022-10-17T12:51:44.203Z,16.65
2022-10-17T12:56:36.436Z,16.65
2022-10-17T13:01:46.512Z,16.67
2022-10-17T13:06:54.521Z,16.69
2022-10-17T13:12:02.467Z,16.66
2022-10-17T13:17:06.792Z,16.60
2022-10-17T13:22:33.022Z,16.55
2022-10-17T13:27:43.743Z,16.55
2022-10-17T13:32:47.939Z,16.52
2022-10-17T13:37:54.069Z,16.51
2022-10-17T13:43:02.057Z,16.56
2022-10-17T13:48:19.051Z,16.64
2022-10-17T13:53:27.475Z,16.64
2022-10-17T13:58:41.860Z,16.63
2022-10-17T14:03:48.886Z,16.69
2022-10-17T14:09:00.665Z,16.84
2022-10-17T14:14:19.249Z,16.88
2022-10-17T14:19:36.116Z,16.88
2022-10-17T14:24:45.051Z,16.82
2022-10-17T14:29:51.962Z,16.77
2022-10-17T14:35:01.544Z,16.75
2022-10-17T14:40:20.157Z,16.73
2022-10-17T14:45:31.815Z,16.68
2022-10-17T14:50:36.383Z,16.66
2022-10-17T14:55:58.009Z,16.61
2022-10-17T15:01:02.144Z,16.58
2022-10-17T15:06:33.991Z,16.53
2022-10-17T15:11:36.235Z,16.47
2022-10-17T15:16:39.478Z,16.43
2022-10-17T15:21:47.225Z,16.41
2022-10-17T15:26:51.623Z,16.36
2022-10-17T15:31:55.895Z,16.32
2022-10-17T15:36:59.893Z,16.22
2022-10-17T15:42:01.682Z,16.12
2022-10-17T15:47:03.702Z,16.01
2022-10-17T15:52:08.463Z,16.01
2022-10-17T15:57:17.739Z,15.94
2022-10-17T16:04:35.687Z,15.92
2022-10-17T16:09:37.518Z,16.03
2022-10-17T16:14:41.269Z,15.89
2022-10-17T16:19:45.671Z,15.98
2022-10-17T16:24:48.513Z,15.84
2022-10-17T16:29:53.600Z,15.97
2022-10-17T16:34:55.331Z,16.19
2022-10-17T16:39:57.135Z,15.94
2022-10-17T16:44:58.805Z,15.78
2022-10-17T16:50:02.861Z,15.63
2022-10-17T16:55:05.074Z,15.54
2022-10-17T17:00:11.967Z,15.45
2022-10-17T17:05:13.743Z,15.33
2022-10-17T17:10:15.667Z,15.25
2022-10-17T17:15:18.447Z,15.18
2022-10-17T17:20:20.420Z,15.10
2022-10-17T17:25:24.899Z,15.02
2022-10-17T17:30:30.197Z,15.03
2022-10-17T17:35:32.012Z,14.95
2022-10-17T17:40:50.472Z,14.87
2022-10-17T17:45:53.005Z,14.79
2022-10-17T17:50:54.736Z,14.75
2022-10-17T17:56:25.082Z,14.71
2022-10-17T18:01:32.461Z,14.67
2022-10-17T18:06:40.316Z,14.62
2022-10-17T18:11:42.374Z,14.56
2022-10-17T18:16:46.549Z,14.51
2022-10-17T18:21:48.888Z,14.46
2022-10-17T18:26:53.933Z,14.43
2022-10-17T18:31:55.891Z,14.42
2022-10-17T18:37:02.630Z,14.43
2022-10-17T18:42:05.030Z,14.46
2022-10-17T18:47:09.190Z,14.47
2022-10-17T18:52:18.041Z,14.49
2022-10-17T18:57:25.271Z,14.51
2022-10-17T19:02:28.185Z,14.52
2022-10-17T19:07:32.631Z,14.53
2022-10-17T19:12:34.567Z,14.53
2022-10-17T19:17:37.117Z,14.56
2022-10-17T19:22:38.809Z,14.57
2022-10-17T19:27:40.748Z,14.56
2022-10-17T19:32:44.813Z,14.55
2022-10-17T19:37:46.649Z,14.56
2022-10-17T19:42:48.393Z,14.56
2022-10-17T19:47:50.217Z,14.54
2022-10-17T19:52:52.184Z,14.51
2022-10-17T19:57:56.638Z,14.49
2022-10-17T20:02:59.362Z,14.46
2022-10-17T20:08:01.195Z,14.43
2022-10-17T20:13:06.094Z,14.42
2022-10-17T20:18:09.015Z,14.38
2022-10-17T20:23:11.424Z,14.36
2022-10-17T20:28:13.437Z,14.34
2022-10-17T20:33:15.793Z,14.32
2022-10-17T20:38:20.096Z,14.28
2022-10-17T20:43:24.852Z,14.25
2022-10-17T20:48:26.891Z,14.21
2022-10-17T20:53:37.119Z,14.19
2022-10-17T20:58:42.678Z,14.26
2022-10-17T21:03:46.508Z,14.51
2022-10-17T21:08:51.296Z,14.34
2022-10-17T21:14:01.988Z,14.25
2022-10-17T21:19:12.489Z,14.18
2022-10-17T21:24:17.390Z,14.13
2022-10-17T21:29:22.142Z,14.10
2022-10-17T21:34:28.613Z,14.06
2022-10-17T21:39:32.728Z,14.04
2022-10-17T21:44:36.286Z,13.98
2022-10-17T21:49:40.385Z,13.93
2022-10-17T21:54:42.081Z,13.91
2022-10-17T21:59:46.550Z,13.86
2022-10-17T22:04:51.308Z,13.82
2022-10-17T22:09:52.956Z,13.79
2022-10-17T22:14:57.062Z,13.80
2022-10-17T22:20:01.917Z,13.79
2022-10-17T22:25:08.638Z,13.77
2022-10-17T22:30:12.941Z,13.73
2022-10-17T22:35:16.854Z,13.71
2022-10-17T22:40:19.589Z,13.70
2022-10-17T22:45:24.402Z,13.69
2022-10-17T22:50:28.789Z,13.66
2022-10-17T22:55:33.000Z,13.64
2022-10-17T23:00:34.695Z,13.61
2022-10-17T23:05:37.737Z,13.59
2022-10-17T23:10:41.746Z,13.56
2022-10-17T23:15:45.974Z,13.56
2022-10-17T23:20:54.928Z,13.51
2022-10-17T23:26:10.274Z,13.50
2022-10-17T23:31:17.747Z,13.48
2022-10-17T23:36:22.673Z,13.46
2022-10-17T23:41:29.062Z,13.42
2022-10-17T23:46:32.980Z,13.39
2022-10-17T23:51:38.052Z,13.36
2022-10-17T23:56:40.711Z,13.32
